Airfield :
LOGIN :

Register | Disclaimer

   EN    FR    IT 

 










Legend :    VFR   Marginal VFR   IFR   Intensive IFR   Very Intensive IFR
Visi :
Ceiling :
>= 8 km
>= 3000ft
5 to 8 km
1000 to 3000 ft
1500m to 5 km
500 to 1000 ft
800 to 1500m
200 to 500 ft
< 800m
< 200 ft
Symbols :   Thunderstorms  Fog  Heavy snow  Heavy precipitations  Wind > 20 kt
SIGMETs :     Misc.  Thunderstorms  Icing  Turbulence  Mountain Waves  Volcanic Ashes






- Airport Elevation : 33 ft
- IATA code : MHZ


EGUN - RAF Mildenhall

CURRENT METAR :
  • 010644Z 30004KT 9999 FEW009 OVC021 12/10 A2945 RMK AO2A SLPNO WND DATA ESTMD ALSTG ESTMD RVRNO PWINO PNO FZRANO VISNO RWY11 CHINO RWY11 $

EXPIRED METARs :
  • 010555Z 28003KT 9999 FEW016 OVC019 12/10 A2945 RMK AO2A SLPNO WND DATA ESTMD ALSTG ESTMD RVRNO PWINO PNO FZRANO VISNO RWY11 CHINO RWY11
  • 010455Z 27002KT 9999 SCT015 OVC018 12/10 A2946 RMK AO2A SLPNO WND DATA ESTMD ALSTG ESTMD RVRNO PWINO PNO FZRANO VISNO RWY11 CHINO RWY11 $
  • 010355Z 27004KT 9999 SCT015 BKN017 12/10 A2947 RMK AO2A SLPNO WND DATA ESTMD ALSTG ESTMD RVRNO PWINO PNO FZRANO VISNO RWY11 CHINO RWY11 $

TAF TAF EGUN
Valid from the 01 at 04:00 until the 02 at 10:00 UTC


010400Z 0104/0210 24009KT 5000 BR OVC010 QNH2946INS
TEMPO 0104/0108 3200 BR OVC007
BECMG 0109/0110 27010G15KT 9999 NSW SCT015 BKN020 QNH2944INS
BECMG 0117/0118 16006KT 9999 SCT030 QNH2940INS
BECMG 0121/0122 12009KT 9999 BKN020 QNH2930INS
BECMG 0206/0207 07010G20KT 9999 BKN020 QNH2931INS TX13/0112Z TN10/0107Z



MET'MAP, your aeronautical weather chart ! - Copyright ORBIFLY December 2007 - Disclaimer

ORBIFLY MET'MAP TEAM :

Programming & Development : Alexandra Zaïnal
Concept & original design : Baudouin d'Aumeries
Assistance for programming : Marc-Olivier Méhu
Technical & hardware support : Manuel Goepfert

Contact : metmap@orbifly.com




SOURCES & CREDITS :

   NOAA